KCEC/CEC METAR and TAF weather

Enter ICAO airport designator
Station Type Date Time Source
KCEC METAR 2020/08/11 19:23 UTC NOAA

KCEC 111923Z AUTO 18007KT 4SM BR OVC002 13/11 A2997 RMK AO2 T01330111


Station Type Date Time Source
KCEC Decoded METAR 2020/08/11 19:23 UTC NOAA

CRESCENT CITY MC NAMARA, CA, United States (KCEC) 41-47N 124-14W
Aug 11, 2020 - 03:23 PM EDT / 2020.08.11 1923 UTC
Wind: from the S (180 degrees) at 8 MPH (7 KT):0
Visibility: 4 mile(s):0
Sky conditions: overcast
Weather: mist
Temperature: 55.9 F (13.3 C)
Dew Point: 52.0 F (11.1 C)
Relative Humidity: 86%
Pressure (altimeter): 29.97 in. Hg (1014 hPa)
ob: KCEC 111923Z AUTO 18007KT 4SM BR OVC002 13/11 A2997 RMK AO2 T01330111
cycle: 19

Station Type Date Time Source
KCEC TAF 2020/08/11 18:36 UTC NOAA

TAF KCEC 111734Z 1118/1218 22006KT 2SM BR OVC002
FM111900 25009KT 6SM HZ OVC004
FM112100 30008KT 6SM HZ SCT004
FM120300 18005KT 3SM BR BKN003
FM120500 17004KT 1SM BR OVC002

Example: see airport list